Impacts METAR Board
IDs:

KSLC - Salt Lake City Intl, UT, US

Updated at: 2200 UTC 25 May 2018
Potential Impact None Slight Moderate High
Time 25/10Z 25/11Z 25/12Z 25/13Z 25/14Z 25/15Z 25/16Z 25/17Z 25/18Z 25/19Z 25/20Z 25/21Z 25/22Z
Temp61 62 61 64 66 72 75 81 82 84 88 88 89
Dewpt45 43 43 44 45 43 39 36 30 30 34 34 31
Altim29.98 29.97 29.98 29.98 29.98 29.98 29.98 29.97 29.96 29.93 29.91 29.89 29.86
VIS10 10 10 10 10 10 10 10 10 10 10 10 10
CIG-- -- -- -- -- -- -- -- -- -- -- -- --
CoverCLRCLRFEWCLRCLRCLRCLRFEWFEWFEWFEWFEWFEW
FltCatVFRVFRVFRVFRVFRVFRVFRVFRVFRVFRVFRVFRVFR
WX--------------------------
WDir160150150160160130170160160160150150
WSpd6 5 6 12 5 7 8 13 13 9 10 7
WGst-- -- -- -- -- -- 20 -- 20 17 -- 17 --
Raw hourly METARs
KSLC 250954Z 16006KT 10SM CLR 16/07 A2998
KSLC 251054Z 15005KT 10SM CLR 17/06 A2997 RMK SLP097 T01670061
KSLC 251154Z 15006KT 10SM FEW200 16/06 A2998 RMK SLP101 T01610061
KSLC 251254Z 16012KT 10SM CLR 18/07 A2998 RMK SLP100 T01780067
KSLC 251354Z 16005KT 10SM CLR 19/07 A2998
KSLC 251454Z 13007KT 10SM CLR 22/06 A2998
KSLC 251554Z 17008G20KT 10SM CLR 24/04 A2998
KSLC 251654Z 16013KT 10SM FEW090 27/02 A2997
KSLC 251754Z 16013G20KT 10SM FEW090 28/M01 A2996
KSLC 251854Z 16009G17KT 10SM FEW090 FEW200 29/M01 A2993
KSLC 251954Z 10SM FEW085 FEW200 31/01 A2991
KSLC 252054Z 15010G17KT 10SM FEW085 FEW200 31/01 A2989
KSLC 252154Z 15007KT 10SM FEW085 32/M01 A2986 RMK AO2 SLP057 T03171006



Page loaded:  22:07 UTC  |   03:07 PM Pacific  |   04:07 PM Mountain  |   05:07 PM Central  |   06:07 PM Eastern

 

ADVISORIES

FORECASTS

FORECASTS

OBSERVATIONS

USER TOOLS

ABOUT US